Time;durP1;ratioP1;P1;durP2;ratioP2;P2;SDS_P1;SDS_P2;PMS_P1;PMS_P2;Temp;Humidity;BMP_temperature;BMP_pressure;BME280_temperature;BME280_humidity;BME280_pressure;Samples;Min_cycle;Max_cycle;Signal;HPM_P1;HPM_P2
2021/05/19 00:00:47;;;;;;;8.60;6.20;;;11.70;99.90;;;;;;5116008;28;20924;-44
2021/05/19 00:03:14;;;;;;;8.13;5.13;;;11.70;99.90;;;;;;5116022;28;20527;-44
2021/05/19 00:05:40;;;;;;;8.83;4.83;;;11.70;99.90;;;;;;5116491;28;20472;-44
2021/05/19 00:08:06;;;;;;;8.57;6.03;;;11.70;99.90;;;;;;5117047;28;20449;-49
2021/05/19 00:10:33;;;;;;;7.70;4.60;;;11.70;99.90;;;;;;5116804;28;20966;-51
2021/05/19 00:12:59;;;;;;;6.70;5.00;;;11.70;99.90;;;;;;5117131;28;20444;-44
2021/05/19 00:15:26;;;;;;;8.60;5.40;;;11.70;99.90;;;;;;5117467;28;20432;-45
2021/05/19 00:17:52;;;;;;;8.57;4.70;;;11.70;99.90;;;;;;5117552;28;20509;-46
2021/05/19 00:20:19;;;;;;;7.33;4.53;;;11.80;99.90;;;;;;5116561;28;20437;-46
2021/05/19 00:22:45;;;;;;;7.27;4.80;;;11.70;99.90;;;;;;5115992;28;20472;-45
2021/05/19 00:25:12;;;;;;;6.50;4.60;;;11.70;99.90;;;;;;5115900;28;20792;-45
2021/05/19 00:27:38;;;;;;;10.83;4.93;;;11.70;99.90;;;;;;5116970;28;20455;-44
2021/05/19 00:30:07;;;;;;;5.57;4.30;;;11.60;99.90;;;;;;5116674;28;20436;-45
2021/05/19 00:32:34;;;;;;;7.27;5.13;;;11.60;99.90;;;;;;5116345;28;20444;-44
2021/05/19 00:35:00;;;;;;;8.03;5.33;;;11.50;99.90;;;;;;5116804;28;20509;-43
2021/05/19 00:37:26;;;;;;;11.27;5.80;;;11.40;99.90;;;;;;5116681;28;20464;-43
2021/05/19 00:39:52;;;;;;;9.63;7.03;;;11.40;99.90;;;;;;5116644;28;20449;-45
2021/05/19 00:42:18;;;;;;;7.00;5.60;;;11.40;99.90;;;;;;5116831;28;20460;-45
2021/05/19 00:44:44;;;;;;;7.87;5.10;;;11.30;99.90;;;;;;5117024;28;20448;-44
2021/05/19 00:47:10;;;;;;;7.13;5.13;;;11.30;99.90;;;;;;5116662;28;20476;-45
2021/05/19 00:49:38;;;;;;;8.27;5.47;;;11.20;99.90;;;;;;5117535;28;20455;-44
2021/05/19 00:52:04;;;;;;;8.43;5.30;;;11.20;99.90;;;;;;5121269;28;20452;-46
2021/05/19 00:54:32;;;;;;;12.43;5.33;;;11.20;99.90;;;;;;5120367;28;20444;-44
2021/05/19 00:56:59;;;;;;;10.17;5.37;;;11.20;99.90;;;;;;5121239;28;20542;-43
2021/05/19 00:59:25;;;;;;;9.50;6.10;;;11.10;99.90;;;;;;5121106;28;20467;-45
2021/05/19 01:01:51;;;;;;;9.33;5.73;;;11.10;99.90;;;;;;5120510;28;20962;-52
2021/05/19 01:04:17;;;;;;;7.40;5.60;;;11.10;99.90;;;;;;5120076;28;20445;-49
2021/05/19 01:06:49;;;;;;;8.40;5.80;;;11.10;99.90;;;;;;5120193;28;20476;-47
2021/05/19 01:12:00;;;;;;;9.67;5.10;;;11.50;99.90;;;;;;5120594;28;20962;-46
2021/05/19 01:14:26;;;;;;;5.53;4.37;;;11.10;99.90;;;;;;5120473;28;20444;-47
2021/05/19 01:16:52;;;;;;;11.10;5.70;;;11.20;99.90;;;;;;5120431;28;20816;-48
2021/05/19 01:19:21;;;;;;;6.60;4.97;;;11.20;99.90;;;;;;5120302;28;20465;-47
2021/05/19 01:21:52;;;;;;;9.37;5.20;;;11.20;99.90;;;;;;5120236;28;20964;-43
2021/05/19 01:24:19;;;;;;;9.03;4.93;;;11.30;99.90;;;;;;5120342;28;20433;-43
2021/05/19 01:26:46;;;;;;;10.77;5.50;;;11.30;99.90;;;;;;5120746;28;20491;-44
2021/05/19 01:29:12;;;;;;;7.00;4.93;;;11.30;99.90;;;;;;5120467;28;20440;-43
2021/05/19 01:31:38;;;;;;;11.30;4.70;;;11.30;99.90;;;;;;5119713;28;20453;-44
2021/05/19 01:34:04;;;;;;;5.93;5.17;;;11.40;99.90;;;;;;5120002;28;20445;-49
2021/05/19 01:36:31;;;;;;;8.33;4.50;;;11.40;99.90;;;;;;5119849;28;20583;-45
2021/05/19 01:38:57;;;;;;;7.43;4.40;;;11.40;99.90;;;;;;5119739;28;20517;-49
2021/05/19 01:41:24;;;;;;;11.03;5.30;;;11.50;99.90;;;;;;5119332;28;20790;-47
2021/05/19 01:43:50;;;;;;;6.23;4.57;;;11.50;99.90;;;;;;5119672;28;20932;-48
2021/05/19 01:46:16;;;;;;;9.00;5.43;;;11.50;99.90;;;;;;5118993;28;20468;-43
2021/05/19 01:48:43;;;;;;;8.47;4.70;;;11.50;99.90;;;;;;5119519;28;20432;-46
2021/05/19 01:51:10;;;;;;;6.33;4.50;;;11.60;99.90;;;;;;5119372;28;20458;-43
2021/05/19 01:53:38;;;;;;;7.20;4.57;;;11.60;99.90;;;;;;5119795;28;20436;-47
2021/05/19 01:56:04;;;;;;;4.47;4.03;;;11.70;99.90;;;;;;5119414;28;20440;-45
2021/05/19 01:58:32;;;;;;;6.00;4.43;;;11.60;99.90;;;;;;5119469;28;20905;-43
2021/05/19 02:00:58;;;;;;;8.03;3.70;;;11.60;99.90;;;;;;5118874;28;20551;-43
2021/05/19 02:03:24;;;;;;;6.23;4.50;;;11.70;99.90;;;;;;5119457;28;20943;-46
2021/05/19 02:05:50;;;;;;;4.37;3.93;;;11.70;99.90;;;;;;5119847;28;20804;-44
2021/05/19 02:08:17;;;;;;;6.07;4.23;;;11.70;99.90;;;;;;5120791;28;20447;-46
2021/05/19 02:10:43;;;;;;;5.10;4.50;;;11.70;99.90;;;;;;5119924;28;20784;-44
2021/05/19 02:13:11;;;;;;;7.47;4.53;;;11.70;99.90;;;;;;5119536;28;20452;-46
2021/05/19 02:15:39;;;;;;;7.97;3.93;;;11.80;99.90;;;;;;5119360;28;20451;-48
2021/05/19 02:18:05;;;;;;;6.93;5.07;;;11.80;99.90;;;;;;5118915;28;20460;-46
2021/05/19 02:20:32;;;;;;;13.10;5.27;;;11.80;99.90;;;;;;5118715;28;20440;-49
2021/05/19 02:22:58;;;;;;;7.00;5.33;;;11.80;99.90;;;;;;5118519;28;20476;-45
2021/05/19 02:25:25;;;;;;;6.90;4.70;;;11.80;99.90;;;;;;5119205;28;20472;-47
2021/05/19 02:27:52;;;;;;;5.10;4.10;;;11.80;99.90;;;;;;5118743;28;20453;-43
2021/05/19 02:30:21;;;;;;;6.53;4.47;;;11.90;99.90;;;;;;5118759;28;20908;-44
2021/05/19 02:32:49;;;;;;;5.67;4.30;;;11.90;99.90;;;;;;5118666;28;21070;-44
2021/05/19 02:35:16;;;;;;;5.63;4.30;;;11.90;99.90;;;;;;5119067;28;20484;-43
2021/05/19 02:37:43;;;;;;;7.53;4.37;;;11.90;99.90;;;;;;5118746;28;20440;-46
2021/05/19 02:40:11;;;;;;;8.27;4.70;;;12.00;99.90;;;;;;5119042;28;20451;-43
2021/05/19 02:42:38;;;;;;;9.30;5.23;;;12.00;99.90;;;;;;5118970;28;20459;-50
2021/05/19 02:45:06;;;;;;;5.77;5.23;;;12.00;99.90;;;;;;5118119;28;20444;-48
2021/05/19 02:47:32;;;;;;;5.80;4.60;;;12.00;99.90;;;;;;5118144;28;20444;-45
2021/05/19 02:49:59;;;;;;;4.97;4.07;;;12.10;99.90;;;;;;5117796;28;20437;-49
2021/05/19 02:52:25;;;;;;;7.70;4.27;;;12.10;99.90;;;;;;5117099;28;20440;-47
2021/05/19 02:54:51;;;;;;;7.10;5.07;;;12.10;99.90;;;;;;5117748;28;20441;-49
2021/05/19 02:57:18;;;;;;;6.73;4.43;;;12.10;99.90;;;;;;5118194;28;20441;-46
2021/05/19 02:59:44;;;;;;;6.47;4.47;;;12.20;99.90;;;;;;5118333;28;20452;-44
2021/05/19 03:02:10;;;;;;;4.93;4.30;;;12.20;99.90;;;;;;5118071;28;20773;-51
2021/05/19 03:04:37;;;;;;;5.90;4.00;;;12.20;99.90;;;;;;5117575;28;20822;-51
2021/05/19 03:07:04;;;;;;;4.80;4.10;;;12.20;99.90;;;;;;5117549;28;20488;-45
2021/05/19 03:09:30;;;;;;;7.83;5.03;;;12.30;99.90;;;;;;5118007;28;20782;-45
2021/05/19 03:11:57;;;;;;;5.80;4.10;;;12.30;99.90;;;;;;5117978;28;20445;-44
2021/05/19 03:14:23;;;;;;;7.23;5.17;;;12.20;99.90;;;;;;5117768;28;20447;-47
2021/05/19 03:16:49;;;;;;;5.90;4.83;;;12.30;99.90;;;;;;5117197;28;20955;-50
2021/05/19 03:19:15;;;;;;;8.90;4.90;;;12.20;99.90;;;;;;5117762;28;20436;-44
2021/05/19 03:21:41;;;;;;;9.90;5.13;;;12.30;99.90;;;;;;5117244;28;20479;-51
2021/05/19 03:24:09;;;;;;;7.30;4.60;;;12.30;99.90;;;;;;5117835;28;20429;-51
2021/05/19 03:26:35;;;;;;;5.80;4.63;;;12.20;99.90;;;;;;5117719;28;20480;-48
2021/05/19 03:29:01;;;;;;;10.40;5.00;;;12.20;99.90;;;;;;5117915;28;21075;-44
2021/05/19 03:31:27;;;;;;;5.97;4.60;;;12.20;99.90;;;;;;5117826;28;20963;-44
2021/05/19 03:33:53;;;;;;;6.70;4.30;;;12.30;99.90;;;;;;5118223;28;20940;-47
2021/05/19 03:36:20;;;;;;;7.10;5.00;;;12.30;99.90;;;;;;5117810;28;20436;-44
2021/05/19 03:38:46;;;;;;;5.40;4.37;;;12.20;99.90;;;;;;5117876;28;20436;-43
2021/05/19 03:41:13;;;;;;;6.97;4.83;;;12.20;99.90;;;;;;5117478;28;20509;-48
2021/05/19 03:43:39;;;;;;;8.60;5.60;;;12.20;99.90;;;;;;5117493;28;20799;-46
2021/05/19 03:46:06;;;;;;;7.80;5.23;;;12.20;99.90;;;;;;5117141;28;20471;-44
2021/05/19 03:48:33;;;;;;;5.23;4.40;;;12.30;99.90;;;;;;5117515;28;20912;-44
2021/05/19 03:50:59;;;;;;;5.80;4.93;;;12.30;99.90;;;;;;5117437;28;20457;-44
2021/05/19 03:53:26;;;;;;;7.47;5.73;;;12.30;99.90;;;;;;5118153;28;20448;-43
2021/05/19 03:55:52;;;;;;;6.30;5.13;;;12.30;99.90;;;;;;5117103;28;20463;-47
2021/05/19 03:58:19;;;;;;;7.30;5.27;;;12.30;99.90;;;;;;5117176;28;20904;-47
2021/05/19 04:00:45;;;;;;;8.30;5.00;;;12.30;99.90;;;;;;5117236;28;20796;-44
2021/05/19 04:03:11;;;;;;;10.03;5.20;;;12.20;99.90;;;;;;5117049;28;20522;-44
2021/05/19 04:05:39;;;;;;;7.77;5.63;;;12.20;99.90;;;;;;5117535;28;21020;-47
2021/05/19 04:08:06;;;;;;;7.60;5.13;;;12.10;99.90;;;;;;5116953;28;20456;-49
2021/05/19 04:10:33;;;;;;;8.60;4.67;;;12.10;99.90;;;;;;5116254;28;20451;-45
2021/05/19 04:13:02;;;;;;;5.73;4.80;;;12.10;99.90;;;;;;5117015;28;20826;-44
2021/05/19 04:15:29;;;;;;;7.10;5.50;;;12.20;99.90;;;;;;5116639;28;21211;-44
2021/05/19 04:17:57;;;;;;;6.40;5.70;;;12.30;99.90;;;;;;5098882;28;20462;-46
2021/05/19 04:20:23;;;;;;;11.43;5.73;;;12.30;99.90;;;;;;5116579;28;20534;-44
2021/05/19 04:22:50;;;;;;;7.20;5.63;;;12.30;99.90;;;;;;5116764;28;20847;-45
2021/05/19 04:25:16;;;;;;;8.07;5.87;;;12.30;99.90;;;;;;5116395;28;20509;-44
2021/05/19 04:27:43;;;;;;;7.37;5.80;;;12.30;99.90;;;;;;5116793;28;20467;-44
2021/05/19 04:30:10;;;;;;;8.67;5.73;;;12.30;99.90;;;;;;5116860;28;20440;-44
2021/05/19 04:32:38;;;;;;;7.07;5.30;;;12.30;99.90;;;;;;5116971;28;20573;-44
2021/05/19 04:35:07;;;;;;;9.97;6.10;;;12.40;99.90;;;;;;5117776;28;20460;-44
2021/05/19 04:37:33;;;;;;;8.70;6.50;;;12.40;99.90;;;;;;5117252;28;20761;-49
2021/05/19 04:39:59;;;;;;;6.73;5.00;;;12.40;99.90;;;;;;5117131;28;20445;-48
2021/05/19 04:42:26;;;;;;;9.17;6.00;;;12.40;99.90;;;;;;5116186;28;20850;-46
2021/05/19 04:44:52;;;;;;;12.90;6.57;;;12.50;99.90;;;;;;5116247;28;20449;-49
2021/05/19 04:47:18;;;;;;;7.90;6.07;;;12.50;99.90;;;;;;5116370;28;20476;-46
2021/05/19 04:49:45;;;;;;;7.70;6.47;;;12.50;99.90;;;;;;5116289;28;20517;-50
2021/05/19 04:52:12;;;;;;;8.07;6.10;;;12.50;99.90;;;;;;5116772;28;20761;-47
2021/05/19 04:54:38;;;;;;;12.63;6.53;;;12.40;99.90;;;;;;5116747;28;20448;-47
2021/05/19 04:57:05;;;;;;;10.60;6.03;;;12.40;99.90;;;;;;5116500;28;20797;-46
2021/05/19 04:59:31;;;;;;;8.43;6.13;;;12.40;99.90;;;;;;5116584;28;20830;-45
2021/05/19 05:01:57;;;;;;;11.43;8.03;;;12.30;99.90;;;;;;5116407;28;20940;-48
2021/05/19 05:04:23;;;;;;;10.10;6.67;;;12.20;99.90;;;;;;5116848;28;20885;-47
2021/05/19 05:06:50;;;;;;;8.90;6.50;;;12.20;99.90;;;;;;5116193;28;20798;-44
2021/05/19 05:09:16;;;;;;;13.43;7.10;;;12.30;99.90;;;;;;5116674;28;20792;-48
2021/05/19 05:11:42;;;;;;;9.20;6.67;;;12.30;99.90;;;;;;5116292;28;20453;-46
2021/05/19 05:14:09;;;;;;;10.13;6.10;;;12.30;99.90;;;;;;5115896;28;20456;-47
2021/05/19 05:16:35;;;;;;;8.00;6.17;;;12.40;99.90;;;;;;5116851;28;20816;-46
2021/05/19 05:19:01;;;;;;;10.77;6.97;;;12.40;99.90;;;;;;5116497;28;20472;-44
2021/05/19 05:21:27;;;;;;;12.30;7.00;;;12.40;99.90;;;;;;5116218;28;20769;-47
2021/05/19 05:23:54;;;;;;;9.27;6.60;;;12.40;99.90;;;;;;5116331;28;20932;-45
2021/05/19 05:26:20;;;;;;;6.70;5.60;;;12.50;99.90;;;;;;5116525;28;20476;-46
2021/05/19 05:28:46;;;;;;;11.80;6.93;;;12.60;99.90;;;;;;5116331;28;20440;-45
2021/05/19 05:31:12;;;;;;;10.93;6.90;;;12.40;99.90;;;;;;5116003;28;20990;-50
2021/05/19 05:33:39;;;;;;;9.63;6.80;;;12.40;99.90;;;;;;5115746;28;20474;-49
2021/05/19 05:36:05;;;;;;;8.70;6.07;;;12.60;99.90;;;;;;5118084;28;20444;-43
2021/05/19 05:38:31;;;;;;;9.93;6.60;;;12.60;99.90;;;;;;5120703;28;20918;-43
2021/05/19 05:40:58;;;;;;;13.23;7.40;;;12.50;99.90;;;;;;5120553;28;20444;-44
2021/05/19 05:43:25;;;;;;;8.00;5.43;;;12.50;99.90;;;;;;5120473;28;20443;-43
2021/05/19 05:45:51;;;;;;;12.17;6.83;;;12.40;99.90;;;;;;5120338;28;20704;-43
2021/05/19 05:48:17;;;;;;;8.20;6.20;;;12.40;99.90;;;;;;5120960;28;20854;-46
2021/05/19 05:50:43;;;;;;;8.40;6.37;;;12.40;99.90;;;;;;5120340;28;20432;-45
2021/05/19 05:53:09;;;;;;;9.40;6.37;;;12.40;99.90;;;;;;5119781;28;20920;-47
2021/05/19 05:55:36;;;;;;;7.70;6.00;;;12.40;99.90;;;;;;5118849;28;20449;-45
2021/05/19 05:58:03;;;;;;;10.07;6.33;;;12.40;99.90;;;;;;5119088;28;20989;-45
2021/05/19 06:00:29;;;;;;;12.73;6.17;;;12.40;99.90;;;;;;5118932;28;20455;-47
2021/05/19 06:02:55;;;;;;;9.13;5.50;;;12.40;99.90;;;;;;5118975;28;20513;-45
2021/05/19 06:05:21;;;;;;;6.67;5.27;;;12.40;99.90;;;;;;5119162;28;20436;-44
2021/05/19 06:07:47;;;;;;;7.77;5.40;;;12.40;99.90;;;;;;5118780;28;20459;-47
2021/05/19 06:10:15;;;;;;;7.33;5.70;;;12.50;99.90;;;;;;5119129;28;20432;-44
2021/05/19 06:12:41;;;;;;;8.70;6.03;;;12.60;99.90;;;;;;5118807;28;20449;-44
2021/05/19 06:15:08;;;;;;;6.60;5.30;;;12.70;99.90;;;;;;5119306;28;20773;-46
2021/05/19 06:17:35;;;;;;;13.83;6.10;;;12.80;99.90;;;;;;5119842;28;20433;-44
2021/05/19 06:20:01;;;;;;;8.07;5.90;;;12.80;99.90;;;;;;5118821;28;20932;-45
2021/05/19 06:22:27;;;;;;;6.33;4.60;;;12.80;99.90;;;;;;5118602;28;20480;-46
2021/05/19 06:24:53;;;;;;;7.27;5.50;;;12.80;99.90;;;;;;5118579;28;20916;-46
2021/05/19 06:27:20;;;;;;;6.73;5.20;;;12.90;99.90;;;;;;5119579;28;20476;-49
2021/05/19 06:29:46;;;;;;;6.40;5.27;;;13.10;99.90;;;;;;5120387;28;20788;-45
2021/05/19 06:32:14;;;;;;;7.80;4.80;;;13.10;99.90;;;;;;5121517;28;20827;-47
2021/05/19 06:34:41;;;;;;;6.97;5.47;;;13.20;99.90;;;;;;5121988;28;20826;-46
2021/05/19 06:37:07;;;;;;;7.60;5.30;;;13.30;99.90;;;;;;5120498;28;20800;-42
2021/05/19 06:39:34;;;;;;;6.33;4.70;;;13.30;99.90;;;;;;5120267;28;20445;-48
2021/05/19 06:42:00;;;;;;;6.03;5.20;;;13.30;99.90;;;;;;5118971;28;20456;-48
2021/05/19 06:44:26;;;;;;;6.93;5.00;;;13.30;99.90;;;;;;5118996;28;20457;-47
2021/05/19 06:46:53;;;;;;;5.50;4.80;;;13.30;99.90;;;;;;5118648;28;20487;-47
2021/05/19 06:49:20;;;;;;;6.03;4.03;;;13.40;99.90;;;;;;5124100;27;20509;-47
2021/05/19 06:51:46;;;;;;;5.30;4.20;;;13.40;99.90;;;;;;5120465;28;20505;-48
2021/05/19 06:54:13;;;;;;;7.23;5.47;;;13.50;99.90;;;;;;5119960;28;20433;-46
2021/05/19 06:56:43;;;;;;;6.40;4.97;;;13.60;99.90;;;;;;5120395;28;20433;-50
2021/05/19 06:59:10;;;;;;;5.17;4.43;;;13.70;99.90;;;;;;5119703;28;20506;-45
2021/05/19 07:01:37;;;;;;;4.40;3.70;;;13.90;99.90;;;;;;5120729;28;20457;-43
2021/05/19 07:04:04;;;;;;;4.23;3.50;;;14.00;99.90;;;;;;5119828;28;20433;-51
2021/05/19 07:06:31;;;;;;;4.00;3.20;;;14.10;99.90;;;;;;5119314;28;20476;-48
2021/05/19 07:08:57;;;;;;;7.20;3.40;;;14.20;99.90;;;;;;5118836;28;20755;-49
2021/05/19 07:11:23;;;;;;;6.53;3.80;;;14.30;99.90;;;;;;5118748;28;20487;-44
2021/05/19 07:13:51;;;;;;;4.00;3.60;;;14.80;99.90;;;;;;5119280;27;20464;-49
2021/05/19 07:16:21;;;;;;;6.90;2.90;;;15.90;99.90;;;;;;5116807;28;20525;-47
2021/05/19 07:18:47;;;;;;;2.40;2.20;;;17.50;99.90;;;;;;5115634;28;20468;-45
2021/05/19 07:21:13;;;;;;;3.40;3.10;;;19.30;99.90;;;;;;5116249;27;20449;-49
2021/05/19 07:23:41;;;;;;;3.60;3.23;;;20.60;97.00;;;;;;5120344;27;20768;-45
2021/05/19 07:26:07;;;;;;;3.43;3.00;;;21.90;91.30;;;;;;5116422;28;20480;-46
2021/05/19 07:28:33;;;;;;;3.20;2.90;;;23.20;82.60;;;;;;5117090;28;20445;-48
2021/05/19 07:30:59;;;;;;;3.13;2.80;;;24.50;70.40;;;;;;5116237;27;20750;-48
2021/05/19 07:33:27;;;;;;;5.20;3.87;;;25.20;65.50;;;;;;5115797;27;20436;-44
2021/05/19 07:35:53;;;;;;;2.30;2.10;;;25.10;61.70;;;;;;5123479;27;20440;-49
2021/05/19 07:38:19;;;;;;;5.07;3.40;;;23.90;58.20;;;;;;5114810;27;20443;-48
2021/05/19 07:40:47;;;;;;;3.33;2.60;;;22.70;61.60;;;;;;5114877;28;20875;-45
2021/05/19 07:43:13;;;;;;;4.03;3.20;;;22.30;63.50;;;;;;5113705;28;20508;-46
2021/05/19 07:45:39;;;;;;;3.80;3.03;;;22.60;62.40;;;;;;5115197;28;20448;-47
2021/05/19 07:48:06;;;;;;;3.27;2.73;;;23.60;62.20;;;;;;5114333;28;20453;-44
2021/05/19 07:50:33;;;;;;;5.87;3.90;;;24.30;59.30;;;;;;5113625;28;20456;-43
2021/05/19 07:52:59;;;;;;;5.57;3.40;;;24.60;57.70;;;;;;5113097;28;20444;-48
2021/05/19 07:55:28;;;;;;;3.27;2.97;;;24.70;57.80;;;;;;5114141;28;20452;-46
2021/05/19 07:58:00;;;;;;;3.40;2.83;;;25.50;55.40;;;;;;5114421;28;20448;-46
2021/05/19 08:00:40;;;;;;;3.40;2.40;;;25.60;53.70;;;;;;5114510;28;20468;-46
2021/05/19 08:03:06;;;;;;;3.20;2.90;;;26.50;53.00;;;;;;5113693;28;20505;-50
2021/05/19 08:05:32;;;;;;;4.10;2.97;;;27.20;51.20;;;;;;5114030;28;20445;-47
2021/05/19 08:07:59;;;;;;;4.80;3.50;;;27.00;49.70;;;;;;5114026;28;20451;-47
2021/05/19 08:10:25;;;;;;;4.43;2.77;;;26.00;49.90;;;;;;5114620;28;20468;-50
2021/05/19 08:12:52;;;;;;;5.10;3.43;;;25.50;51.20;;;;;;5113884;28;20475;-44
2021/05/19 08:15:19;;;;;;;3.10;2.80;;;25.40;52.80;;;;;;5114931;28;20811;-45
2021/05/19 08:17:46;;;;;;;6.47;3.50;;;25.60;52.30;;;;;;5113323;28;20441;-43
2021/05/19 08:20:13;;;;;;;3.50;2.93;;;26.20;51.30;;;;;;5113557;28;20447;-44
2021/05/19 08:22:39;;;;;;;4.53;3.40;;;26.40;50.40;;;;;;5112639;28;20943;-45
2021/05/19 08:25:07;;;;;;;4.33;3.37;;;26.10;52.10;;;;;;5113414;28;20506;-46
2021/05/19 08:27:33;;;;;;;3.77;3.00;;;25.60;52.10;;;;;;5113107;28;20990;-46
2021/05/19 08:30:02;;;;;;;3.00;2.60;;;25.50;52.70;;;;;;5114521;28;20456;-47
2021/05/19 08:32:29;;;;;;;5.10;2.73;;;25.70;52.40;;;;;;5113647;28;20509;-45
2021/05/19 08:34:55;;;;;;;3.10;2.80;;;24.60;54.30;;;;;;5114222;28;20525;-47
2021/05/19 08:37:21;;;;;;;3.67;3.03;;;24.40;56.10;;;;;;5114136;28;20588;-49
2021/05/19 08:39:48;;;;;;;3.40;2.60;;;24.80;54.70;;;;;;5114581;28;20517;-43
2021/05/19 08:42:15;;;;;;;3.90;2.60;;;24.50;54.30;;;;;;5113449;28;20464;-46
2021/05/19 08:44:42;;;;;;;4.07;2.70;;;24.20;55.40;;;;;;5114572;28;20468;-45
2021/05/19 08:47:11;;;;;;;2.87;2.67;;;24.80;55.30;;;;;;5114160;28;20472;-47
2021/05/19 08:49:39;;;;;;;3.00;2.53;;;25.30;53.90;;;;;;5115491;28;20441;-47
2021/05/19 08:52:06;;;;;;;4.50;2.90;;;25.70;52.30;;;;;;5113615;28;20459;-43
2021/05/19 08:54:32;;;;;;;3.27;2.37;;;25.10;51.70;;;;;;5114383;28;20452;-47
2021/05/19 08:56:59;;;;;;;3.23;2.80;;;24.40;52.90;;;;;;5113817;28;20444;-43
2021/05/19 08:59:25;;;;;;;4.57;2.87;;;24.70;53.80;;;;;;5114462;28;20461;-44
2021/05/19 09:01:52;;;;;;;4.40;3.27;;;24.30;54.00;;;;;;5113661;28;20452;-43
2021/05/19 09:04:20;;;;;;;5.73;3.00;;;23.30;55.60;;;;;;5114590;28;20448;-42
2021/05/19 09:06:52;;;;;;;4.40;2.60;;;22.50;57.00;;;;;;5114375;28;20484;-42
2021/05/19 09:09:26;;;;;;;4.77;3.00;;;21.90;57.10;;;;;;5114858;28;20511;-44
2021/05/19 09:12:02;;;;;;;3.30;2.87;;;21.40;58.00;;;;;;5116369;28;20450;-42
2021/05/19 09:14:32;;;;;;;4.00;3.17;;;21.70;58.60;;;;;;5119244;28;20447;-45
2021/05/19 09:17:21;;;;;;;4.00;3.10;;;22.60;58.00;;;;;;5119064;28;20452;-42
2021/05/19 09:19:48;;;;;;;3.60;2.83;;;22.80;56.70;;;;;;5116295;28;20535;-48
2021/05/19 09:22:21;;;;;;;3.90;2.77;;;23.40;55.50;;;;;;5117146;28;20476;-48
2021/05/19 09:24:48;;;;;;;3.07;2.10;;;23.80;53.60;;;;;;5113060;28;20451;-44
2021/05/19 09:27:15;;;;;;;4.20;2.63;;;24.20;53.60;;;;;;5116685;28;20583;-43
2021/05/19 09:29:47;;;;;;;2.50;2.10;;;25.00;51.30;;;;;;5116615;28;20556;-44
2021/05/19 09:32:15;;;;;;;3.57;2.60;;;25.60;50.20;;;;;;5111976;28;20444;-45
2021/05/19 09:34:43;;;;;;;2.50;2.30;;;26.10;50.10;;;;;;5117768;28;20464;-48
2021/05/19 09:37:23;;;;;;;2.77;2.57;;;26.80;49.40;;;;;;5118251;28;20441;-44
2021/05/19 09:39:52;;;;;;;3.30;2.57;;;27.00;47.40;;;;;;5114282;28;20482;-47
2021/05/19 09:42:20;;;;;;;4.47;2.60;;;26.50;47.90;;;;;;5116263;28;20456;-48
2021/05/19 09:44:48;;;;;;;2.53;2.33;;;25.10;49.10;;;;;;5117526;28;20527;-43
2021/05/19 09:47:30;;;;;;;2.43;2.20;;;23.80;49.10;;;;;;5117965;28;20496;-43
2021/05/19 09:49:57;;;;;;;3.00;2.20;;;23.30;52.40;;;;;;5117082;28;20456;-45
2021/05/19 09:52:26;;;;;;;6.33;2.57;;;24.10;51.80;;;;;;5115882;28;20900;-47
2021/05/19 09:55:01;;;;;;;3.07;2.10;;;24.90;50.20;;;;;;5117364;27;20456;-45
2021/05/19 09:57:41;;;;;;;3.50;2.10;;;24.30;49.00;;;;;;5117135;28;20432;-42
2021/05/19 10:00:09;;;;;;;2.17;1.97;;;24.30;49.60;;;;;;5115542;28;20452;-51
2021/05/19 10:02:36;;;;;;;2.90;2.30;;;24.50;49.60;;;;;;5115030;28;20795;-46
2021/05/19 10:05:10;;;;;;;2.43;2.13;;;24.30;50.30;;;;;;5117146;28;20861;-45
2021/05/19 10:07:38;;;;;;;2.40;2.20;;;24.30;49.90;;;;;;5117581;28;20476;-46
2021/05/19 10:10:06;;;;;;;2.83;2.13;;;23.60;51.10;;;;;;5117806;28;20432;-46
2021/05/19 10:12:33;;;;;;;2.67;2.40;;;22.80;51.40;;;;;;5112362;28;20459;-44
2021/05/19 10:15:03;;;;;;;3.20;1.87;;;21.90;53.40;;;;;;5117343;28;20449;-48
2021/05/19 10:17:29;;;;;;;2.63;2.03;;;21.80;52.60;;;;;;5117355;28;20449;-45
2021/05/19 10:19:59;;;;;;;3.10;2.50;;;22.00;52.70;;;;;;5117005;27;20523;-49
2021/05/19 10:22:28;;;;;;;2.70;2.37;;;22.70;53.80;;;;;;5115944;27;20491;-44
2021/05/19 10:25:01;;;;;;;2.80;2.20;;;23.00;53.90;;;;;;5117771;28;20451;-47
2021/05/19 10:27:45;;;;;;;3.63;2.50;;;23.40;54.10;;;;;;5115263;28;20506;-46
2021/05/19 10:30:31;;;;;;;2.40;2.13;;;24.00;53.00;;;;;;5117219;28;20763;-47
2021/05/19 10:32:57;;;;;;;2.20;2.00;;;24.20;52.40;;;;;;5114102;28;20429;-46
2021/05/19 10:35:30;;;;;;;3.10;2.80;;;24.10;51.00;;;;;;5116979;28;20493;-48
2021/05/19 10:38:14;;;;;;;2.33;1.93;;;23.50;51.80;;;;;;5118635;27;20773;-44
2021/05/19 10:40:49;;;;;;;5.63;2.00;;;23.20;53.00;;;;;;5118853;27;20452;-43
2021/05/19 10:43:16;;;;;;;1.80;1.70;;;23.40;53.60;;;;;;5114784;27;20447;-47
2021/05/19 10:45:51;;;;;;;2.77;2.17;;;23.00;52.80;;;;;;5120830;27;20777;-45
2021/05/19 10:48:29;;;;;;;2.53;1.97;;;22.60;51.50;;;;;;5117894;27;20842;-44
2021/05/19 10:51:01;;;;;;;2.00;1.80;;;21.80;52.50;;;;;;5123547;27;20440;-45
2021/05/19 10:59:13;;;;;;;1.90;1.73;;;20.60;56.20;;;;;;5115206;27;20431;-44
2021/05/19 11:01:56;;;;;;;2.77;2.50;;;20.20;56.40;;;;;;5116638;28;20452;-48
2021/05/19 11:04:24;;;;;;;3.63;2.07;;;20.10;56.10;;;;;;5116336;28;20768;-44
2021/05/19 11:07:04;;;;;;;1.73;1.60;;;20.00;57.20;;;;;;5117365;28;20835;-46
2021/05/19 11:09:32;;;;;;;2.30;1.90;;;20.00;57.90;;;;;;5117482;27;20448;-45
2021/05/19 11:12:38;;;;;;;2.20;2.00;;;20.00;57.80;;;;;;5122376;27;20436;-44
2021/05/19 11:15:46;;;;;;;2.57;1.63;;;19.80;58.60;;;;;;5118251;28;20502;-43
2021/05/19 11:18:22;;;;;;;2.60;2.17;;;19.40;58.50;;;;;;5117009;28;20513;-48
2021/05/19 11:20:49;;;;;;;2.70;2.13;;;18.90;58.50;;;;;;5117500;28;20450;-50
2021/05/19 11:23:17;;;;;;;2.47;2.27;;;18.60;60.00;;;;;;5116372;28;20483;-44
2021/05/19 11:25:45;;;;;;;2.37;2.10;;;18.40;61.40;;;;;;5114491;27;20505;-44
2021/05/19 11:28:12;;;;;;;5.03;2.37;;;18.30;62.10;;;;;;5116747;28;20496;-48
2021/05/19 11:30:39;;;;;;;2.70;1.87;;;18.10;63.20;;;;;;5117133;28;20463;-43
2021/05/19 11:33:08;;;;;;;2.73;2.53;;;18.10;62.20;;;;;;5116067;28;20476;-44
2021/05/19 11:35:34;;;;;;;2.20;2.00;;;18.00;61.70;;;;;;5116808;28;20440;-46
2021/05/19 11:38:03;;;;;;;4.20;2.10;;;17.70;62.90;;;;;;5117017;28;20456;-43
2021/05/19 11:40:43;;;;;;;2.83;1.30;;;17.90;65.60;;;;;;5116618;28;20456;-43
2021/05/19 11:43:11;;;;;;;3.00;1.87;;;18.00;66.30;;;;;;5113652;28;20440;-48
2021/05/19 11:45:41;;;;;;;2.83;2.30;;;18.00;67.00;;;;;;5115613;27;20448;-44
2021/05/19 11:48:18;;;;;;;2.07;1.83;;;18.00;68.20;;;;;;5113948;28;20960;-44
2021/05/19 11:50:45;;;;;;;2.00;1.63;;;18.10;67.90;;;;;;5114368;28;20476;-44
2021/05/19 11:53:13;;;;;;;2.03;1.83;;;18.40;64.30;;;;;;5113146;28;20929;-42
2021/05/19 11:55:41;;;;;;;2.43;2.00;;;18.50;64.00;;;;;;5114085;28;20551;-44
2021/05/19 11:58:14;;;;;;;3.00;2.07;;;18.50;65.60;;;;;;5113975;28;20452;-43
2021/05/19 12:00:43;;;;;;;2.20;1.80;;;18.70;63.90;;;;;;5114142;28;20440;-45
2021/05/19 12:03:11;;;;;;;2.17;1.70;;;18.60;63.30;;;;;;5113032;28;20456;-50
2021/05/19 12:05:45;;;;;;;2.20;1.80;;;18.60;65.50;;;;;;5114427;28;20451;-44
2021/05/19 12:08:13;;;;;;;1.90;1.47;;;18.90;64.90;;;;;;5113944;28;20476;-43
2021/05/19 12:10:41;;;;;;;3.80;2.07;;;19.00;63.40;;;;;;5113465;28;20463;-46
2021/05/19 12:13:07;;;;;;;3.90;2.03;;;18.90;64.20;;;;;;5119138;27;20447;-41
2021/05/19 12:15:35;;;;;;;1.80;1.60;;;18.90;65.00;;;;;;5122929;27;20631;-43
2021/05/19 12:18:04;;;;;;;1.67;1.57;;;19.00;64.10;;;;;;5118749;27;20436;-44
2021/05/19 12:20:32;;;;;;;1.80;1.50;;;19.10;62.10;;;;;;5113579;28;20492;-45
2021/05/19 12:23:02;;;;;;;2.70;1.80;;;19.30;62.70;;;;;;5111926;28;20480;-43
2021/05/19 12:25:28;;;;;;;2.10;1.70;;;19.40;61.10;;;;;;5113406;28;20451;-51
2021/05/19 12:28:00;;;;;;;3.43;1.70;;;19.30;61.60;;;;;;5112933;28;20491;-49
2021/05/19 12:30:27;;;;;;;1.80;1.60;;;19.40;62.30;;;;;;5113145;28;20467;-45
2021/05/19 12:33:01;;;;;;;2.13;1.93;;;19.70;61.90;;;;;;5112333;28;20445;-44
2021/05/19 12:35:29;;;;;;;3.23;1.93;;;19.80;59.90;;;;;;5113293;28;20789;-45
2021/05/19 12:38:01;;;;;;;1.73;1.50;;;19.80;59.00;;;;;;5114562;28;20527;-43
2021/05/19 12:40:30;;;;;;;2.67;1.87;;;19.70;58.60;;;;;;5115042;28;20452;-42
2021/05/19 12:42:59;;;;;;;2.00;1.80;;;19.80;59.20;;;;;;5114060;28;20494;-46
2021/05/19 12:45:30;;;;;;;2.90;2.00;;;19.60;58.40;;;;;;5116630;28;20465;-45
2021/05/19 12:48:07;;;;;;;2.40;2.10;;;19.20;58.60;;;;;;5118287;28;20824;-49
2021/05/19 12:50:43;;;;;;;2.60;1.33;;;19.10;59.50;;;;;;5119621;27;20501;-50
2021/05/19 12:53:10;;;;;;;2.73;2.10;;;19.10;58.70;;;;;;5116232;28;20452;-44
2021/05/19 12:55:38;;;;;;;1.50;1.40;;;19.10;60.00;;;;;;5124032;27;20440;-44
2021/05/19 12:58:09;;;;;;;2.33;1.37;;;19.10;59.40;;;;;;5120014;28;20441;-44